sensor_id;sensor_type;location;lat;lon;timestamp;temperature;humidity
61374;DHT22;47242;48.158;-1.586;2024-03-22T05:30:05;11.20;84.30
61374;DHT22;47242;48.158;-1.586;2024-03-22T05:32:31;11.20;84.40
61374;DHT22;47242;48.158;-1.586;2024-03-22T05:34:56;11.30;84.20
61374;DHT22;47242;48.158;-1.586;2024-03-22T05:37:22;11.20;84.10
61374;DHT22;47242;48.158;-1.586;2024-03-22T05:39:48;11.20;84.10
61374;DHT22;47242;48.158;-1.586;2024-03-22T05:42:14;11.20;84.20
61374;DHT22;47242;48.158;-1.586;2024-03-22T05:44:39;11.20;84.10
61374;DHT22;47242;48.158;-1.586;2024-03-22T05:47:05;11.10;84.30
61374;DHT22;47242;48.158;-1.586;2024-03-22T05:49:31;11.10;84.20
61374;DHT22;47242;48.158;-1.586;2024-03-22T05:51:56;11.20;84.10
61374;DHT22;47242;48.158;-1.586;2024-03-22T05:54:22;11.20;84.10
61374;DHT22;47242;48.158;-1.586;2024-03-22T05:56:48;11.20;83.70
61374;DHT22;47242;48.158;-1.586;2024-03-22T05:59:13;11.30;83.70
61374;DHT22;47242;48.158;-1.586;2024-03-22T06:01:39;11.30;83.60
61374;DHT22;47242;48.158;-1.586;2024-03-22T06:04:05;11.20;83.60
61374;DHT22;47242;48.158;-1.586;2024-03-22T06:06:33;11.20;83.80
61374;DHT22;47242;48.158;-1.586;2024-03-22T06:08:59;11.20;83.90
61374;DHT22;47242;48.158;-1.586;2024-03-22T06:11:26;11.20;83.90
61374;DHT22;47242;48.158;-1.586;2024-03-22T06:13:51;11.20;84.00
61374;DHT22;47242;48.158;-1.586;2024-03-22T06:16:17;11.10;84.00
61374;DHT22;47242;48.158;-1.586;2024-03-22T06:18:43;11.10;84.30
61374;DHT22;47242;48.158;-1.586;2024-03-22T06:21:08;11.10;84.20
61374;DHT22;47242;48.158;-1.586;2024-03-22T06:23:34;11.10;84.30
61374;DHT22;47242;48.158;-1.586;2024-03-22T06:26:00;11.10;84.50
61374;DHT22;47242;48.158;-1.586;2024-03-22T06:28:28;11.10;84.40
61374;DHT22;47242;48.158;-1.586;2024-03-22T06:30:54;11.20;84.50
61374;DHT22;47242;48.158;-1.586;2024-03-22T06:33:20;11.20;84.40
61374;DHT22;47242;48.158;-1.586;2024-03-22T06:35:46;11.20;84.40
61374;DHT22;47242;48.158;-1.586;2024-03-22T06:38:12;11.30;84.20
61374;DHT22;47242;48.158;-1.586;2024-03-22T06:40:38;11.30;84.20
61374;DHT22;47242;48.158;-1.586;2024-03-22T06:43:04;11.30;84.10
61374;DHT22;47242;48.158;-1.586;2024-03-22T06:45:29;11.40;83.90
61374;DHT22;47242;48.158;-1.586;2024-03-22T06:47:55;11.40;84.00
61374;DHT22;47242;48.158;-1.586;2024-03-22T06:50:21;11.30;84.00
61374;DHT22;47242;48.158;-1.586;2024-03-22T06:52:51;11.30;83.80
61374;DHT22;47242;48.158;-1.586;2024-03-22T06:55:17;11.30;84.40
61374;DHT22;47242;48.158;-1.586;2024-03-22T06:57:45;11.30;84.30
61374;DHT22;47242;48.158;-1.586;2024-03-22T07:00:11;11.30;84.30
61374;DHT22;47242;48.158;-1.586;2024-03-22T07:02:38;11.30;84.10
61374;DHT22;47242;48.158;-1.586;2024-03-22T07:05:05;11.50;84.00
61374;DHT22;47242;48.158;-1.586;2024-03-22T07:07:31;11.50;83.80
61374;DHT22;47242;48.158;-1.586;2024-03-22T07:09:56;11.60;83.60
61374;DHT22;47242;48.158;-1.586;2024-03-22T07:12:22;11.50;83.50
61374;DHT22;47242;48.158;-1.586;2024-03-22T07:14:48;11.50;83.60
61374;DHT22;47242;48.158;-1.586;2024-03-22T07:17:14;11.50;83.50
61374;DHT22;47242;48.158;-1.586;2024-03-22T07:19:40;11.50;83.60
61374;DHT22;47242;48.158;-1.586;2024-03-22T07:22:06;11.50;83.40
61374;DHT22;47242;48.158;-1.586;2024-03-22T07:24:32;11.40;83.60
61374;DHT22;47242;48.158;-1.586;2024-03-22T07:26:58;11.30;83.80
61374;DHT22;47242;48.158;-1.586;2024-03-22T07:29:23;11.30;83.70
61374;DHT22;47242;48.158;-1.586;2024-03-22T07:31:49;11.30;83.80
61374;DHT22;47242;48.158;-1.586;2024-03-22T07:34:15;11.30;84.10
61374;DHT22;47242;48.158;-1.586;2024-03-22T07:36:40;11.40;84.00
61374;DHT22;47242;48.158;-1.586;2024-03-22T07:39:06;11.40;84.00
61374;DHT22;47242;48.158;-1.586;2024-03-22T07:41:33;11.40;83.80
61374;DHT22;47242;48.158;-1.586;2024-03-22T07:43:59;11.40;83.80
61374;DHT22;47242;48.158;-1.586;2024-03-22T07:46:26;11.50;83.90
61374;DHT22;47242;48.158;-1.586;2024-03-22T07:48:52;11.50;83.70
61374;DHT22;47242;48.158;-1.586;2024-03-22T07:51:17;11.50;83.70
61374;DHT22;47242;48.158;-1.586;2024-03-22T07:53:43;11.50;83.80
61374;DHT22;47242;48.158;-1.586;2024-03-22T07:56:09;11.40;83.60
61374;DHT22;47242;48.158;-1.586;2024-03-22T07:58:34;11.40;83.80
61374;DHT22;47242;48.158;-1.586;2024-03-22T08:01:00;11.40;84.00
61374;DHT22;47242;48.158;-1.586;2024-03-22T08:03:25;11.30;83.90
61374;DHT22;47242;48.158;-1.586;2024-03-22T08:05:51;11.40;84.10
61374;DHT22;47242;48.158;-1.586;2024-03-22T08:08:17;11.40;84.20
61374;DHT22;47242;48.158;-1.586;2024-03-22T08:10:43;11.50;84.10
61374;DHT22;47242;48.158;-1.586;2024-03-22T08:13:09;11.50;83.90
61374;DHT22;47242;48.158;-1.586;2024-03-22T08:15:35;11.60;83.80
61374;DHT22;47242;48.158;-1.586;2024-03-22T08:18:01;11.60;83.80
61374;DHT22;47242;48.158;-1.586;2024-03-22T08:20:26;11.50;83.80
61374;DHT22;47242;48.158;-1.586;2024-03-22T08:22:53;11.60;84.00
61374;DHT22;47242;48.158;-1.586;2024-03-22T08:25:19;11.70;83.80
61374;DHT22;47242;48.158;-1.586;2024-03-22T08:27:46;11.70;83.60
61374;DHT22;47242;48.158;-1.586;2024-03-22T08:30:12;11.80;83.50
61374;DHT22;47242;48.158;-1.586;2024-03-22T08:32:38;11.80;83.30
61374;DHT22;47242;48.158;-1.586;2024-03-22T08:35:04;11.90;83.40
61374;DHT22;47242;48.158;-1.586;2024-03-22T08:37:31;12.00;83.00
61374;DHT22;47242;48.158;-1.586;2024-03-22T08:39:57;12.30;82.80
61374;DHT22;47242;48.158;-1.586;2024-03-22T08:42:23;12.40;82.10
61374;DHT22;47242;48.158;-1.586;2024-03-22T08:44:48;12.40;82.00
61374;DHT22;47242;48.158;-1.586;2024-03-22T08:47:14;12.40;82.00
61374;DHT22;47242;48.158;-1.586;2024-03-22T08:49:39;12.50;81.80
61374;DHT22;47242;48.158;-1.586;2024-03-22T08:52:07;12.60;81.70
61374;DHT22;47242;48.158;-1.586;2024-03-22T08:54:32;12.80;81.60
61374;DHT22;47242;48.158;-1.586;2024-03-22T08:56:59;12.90;81.20
61374;DHT22;47242;48.158;-1.586;2024-03-22T08:59:25;13.00;80.90
61374;DHT22;47242;48.158;-1.586;2024-03-22T09:01:51;13.10;80.20
61374;DHT22;47242;48.158;-1.586;2024-03-22T09:04:17;13.20;80.40
61374;DHT22;47242;48.158;-1.586;2024-03-22T09:06:43;13.20;79.70
61374;DHT22;47242;48.158;-1.586;2024-03-22T09:09:08;13.10;80.00
61374;DHT22;47242;48.158;-1.586;2024-03-22T09:11:34;13.10;79.70
61374;DHT22;47242;48.158;-1.586;2024-03-22T09:14:00;13.10;79.90
61374;DHT22;47242;48.158;-1.586;2024-03-22T09:16:25;13.20;79.70
61374;DHT22;47242;48.158;-1.586;2024-03-22T09:18:51;13.30;79.30
61374;DHT22;47242;48.158;-1.586;2024-03-22T09:21:17;13.20;78.90
61374;DHT22;47242;48.158;-1.586;2024-03-22T09:23:42;13.30;79.20
61374;DHT22;47242;48.158;-1.586;2024-03-22T09:26:08;13.30;79.20
61374;DHT22;47242;48.158;-1.586;2024-03-22T09:28:34;13.40;78.70
61374;DHT22;47242;48.158;-1.586;2024-03-22T09:31:06;13.50;78.80
61374;DHT22;47242;48.158;-1.586;2024-03-22T09:33:33;13.40;78.50
61374;DHT22;47242;48.158;-1.586;2024-03-22T09:35:58;13.50;78.90
61374;DHT22;47242;48.158;-1.586;2024-03-22T09:38:25;13.50;78.60
61374;DHT22;47242;48.158;-1.586;2024-03-22T09:40:50;13.50;78.50
61374;DHT22;47242;48.158;-1.586;2024-03-22T09:43:23;13.50;78.00
61374;DHT22;47242;48.158;-1.586;2024-03-22T09:45:52;13.40;78.30
61374;DHT22;47242;48.158;-1.586;2024-03-22T09:48:20;13.50;78.30
61374;DHT22;47242;48.158;-1.586;2024-03-22T09:50:47;13.30;78.10
61374;DHT22;47242;48.158;-1.586;2024-03-22T09:53:13;13.40;78.30
61374;DHT22;47242;48.158;-1.586;2024-03-22T09:55:44;13.30;78.30
61374;DHT22;47242;48.158;-1.586;2024-03-22T09:58:10;13.40;78.50
61374;DHT22;47242;48.158;-1.586;2024-03-22T10:00:39;13.50;77.80
61374;DHT22;47242;48.158;-1.586;2024-03-22T10:03:05;13.60;77.50
61374;DHT22;47242;48.158;-1.586;2024-03-22T10:05:31;13.70;77.20
61374;DHT22;47242;48.158;-1.586;2024-03-22T10:07:57;13.80;76.60
61374;DHT22;47242;48.158;-1.586;2024-03-22T10:10:23;13.80;76.50
61374;DHT22;47242;48.158;-1.586;2024-03-22T10:12:49;14.00;76.30
61374;DHT22;47242;48.158;-1.586;2024-03-22T10:15:15;14.00;76.00
61374;DHT22;47242;48.158;-1.586;2024-03-22T10:17:42;14.10;75.30
61374;DHT22;47242;48.158;-1.586;2024-03-22T10:20:08;14.10;74.90
61374;DHT22;47242;48.158;-1.586;2024-03-22T10:22:50;14.10;74.80
61374;DHT22;47242;48.158;-1.586;2024-03-22T10:25:20;14.20;75.10
61374;DHT22;47242;48.158;-1.586;2024-03-22T10:27:48;14.30;74.60
61374;DHT22;47242;48.158;-1.586;2024-03-22T10:30:15;14.50;74.40
61374;DHT22;47242;48.158;-1.586;2024-03-22T10:32:44;14.70;73.30
61374;DHT22;47242;48.158;-1.586;2024-03-22T10:35:14;14.90;73.10
61374;DHT22;47242;48.158;-1.586;2024-03-22T10:37:40;15.00;72.80
61374;DHT22;47242;48.158;-1.586;2024-03-22T10:40:09;15.20;72.30
61374;DHT22;47242;48.158;-1.586;2024-03-22T10:42:36;15.50;71.80
61374;DHT22;47242;48.158;-1.586;2024-03-22T10:45:03;15.60;70.30
61374;DHT22;47242;48.158;-1.586;2024-03-22T10:47:31;15.70;70.70
61374;DHT22;47242;48.158;-1.586;2024-03-22T10:50:05;15.80;70.50
61374;DHT22;47242;48.158;-1.586;2024-03-22T10:55:32;15.80;69.90
61374;DHT22;47242;48.158;-1.586;2024-03-22T10:57:59;15.70;70.00
61374;DHT22;47242;48.158;-1.586;2024-03-22T11:00:32;15.80;70.30
61374;DHT22;47242;48.158;-1.586;2024-03-22T11:02:58;15.80;69.60
61374;DHT22;47242;48.158;-1.586;2024-03-22T11:05:26;15.90;69.30
61374;DHT22;47242;48.158;-1.586;2024-03-22T11:08:02;15.90;68.90
61374;DHT22;47242;48.158;-1.586;2024-03-22T11:10:30;15.80;68.90
61374;DHT22;47242;48.158;-1.586;2024-03-22T11:13:04;15.80;69.10
61374;DHT22;47242;48.158;-1.586;2024-03-22T11:15:30;15.70;69.20
61374;DHT22;47242;48.158;-1.586;2024-03-22T11:17:58;15.60;69.40
61374;DHT22;47242;48.158;-1.586;2024-03-22T11:20:27;15.50;69.60
61374;DHT22;47242;48.158;-1.586;2024-03-22T11:22:53;15.50;69.70
61374;DHT22;47242;48.158;-1.586;2024-03-22T11:25:19;15.60;70.00
61374;DHT22;47242;48.158;-1.586;2024-03-22T11:27:46;15.50;70.10
61374;DHT22;47242;48.158;-1.586;2024-03-22T11:30:12;15.50;70.50
61374;DHT22;47242;48.158;-1.586;2024-03-22T11:32:40;15.60;71.00
61374;DHT22;47242;48.158;-1.586;2024-03-22T11:35:11;15.60;71.60
61374;DHT22;47242;48.158;-1.586;2024-03-22T11:37:40;15.70;70.60
61374;DHT22;47242;48.158;-1.586;2024-03-22T11:40:09;15.80;71.00
61374;DHT22;47242;48.158;-1.586;2024-03-22T11:42:36;15.80;70.40
61374;DHT22;47242;48.158;-1.586;2024-03-22T11:45:03;16.00;70.50
61374;DHT22;47242;48.158;-1.586;2024-03-22T11:47:30;16.00;69.00
61374;DHT22;47242;48.158;-1.586;2024-03-22T11:49:55;16.00;68.90
61374;DHT22;47242;48.158;-1.586;2024-03-22T11:52:25;16.10;68.60
61374;DHT22;47242;48.158;-1.586;2024-03-22T11:54:52;16.20;67.60
61374;DHT22;47242;48.158;-1.586;2024-03-22T11:57:18;16.20;68.90
61374;DHT22;47242;48.158;-1.586;2024-03-22T11:59:44;16.30;68.30
61374;DHT22;47242;48.158;-1.586;2024-03-22T12:02:10;16.40;68.40
61374;DHT22;47242;48.158;-1.586;2024-03-22T12:04:36;16.30;68.00
61374;DHT22;47242;48.158;-1.586;2024-03-22T12:07:05;16.30;68.00
61374;DHT22;47242;48.158;-1.586;2024-03-22T12:09:34;16.30;67.30
61374;DHT22;47242;48.158;-1.586;2024-03-22T12:11:59;16.30;66.90
61374;DHT22;47242;48.158;-1.586;2024-03-22T12:14:25;16.30;68.60
61374;DHT22;47242;48.158;-1.586;2024-03-22T12:16:51;16.30;67.40
61374;DHT22;47242;48.158;-1.586;2024-03-22T12:19:16;16.30;68.00
61374;DHT22;47242;48.158;-1.586;2024-03-22T12:21:42;16.40;67.60
61374;DHT22;47242;48.158;-1.586;2024-03-22T12:24:08;16.50;66.10
61374;DHT22;47242;48.158;-1.586;2024-03-22T12:26:34;16.50;65.10
61374;DHT22;47242;48.158;-1.586;2024-03-22T12:28:59;16.60;65.00
61374;DHT22;47242;48.158;-1.586;2024-03-22T12:31:25;16.60;66.20
61374;DHT22;47242;48.158;-1.586;2024-03-22T12:33:51;16.70;66.30
61374;DHT22;47242;48.158;-1.586;2024-03-22T12:36:16;16.70;66.50
61374;DHT22;47242;48.158;-1.586;2024-03-22T12:38:42;16.80;65.00
61374;DHT22;47242;48.158;-1.586;2024-03-22T12:41:08;16.80;64.30
61374;DHT22;47242;48.158;-1.586;2024-03-22T12:43:33;16.80;63.20
61374;DHT22;47242;48.158;-1.586;2024-03-22T12:45:59;16.80;62.80
61374;DHT22;47242;48.158;-1.586;2024-03-22T12:48:25;16.90;63.40
61374;DHT22;47242;48.158;-1.586;2024-03-22T12:50:51;16.90;63.40
61374;DHT22;47242;48.158;-1.586;2024-03-22T12:53:16;17.00;61.90
61374;DHT22;47242;48.158;-1.586;2024-03-22T12:55:42;16.90;61.80
61374;DHT22;47242;48.158;-1.586;2024-03-22T12:58:07;16.80;60.10
61374;DHT22;47242;48.158;-1.586;2024-03-22T13:00:33;16.80;60.40
61374;DHT22;47242;48.158;-1.586;2024-03-22T13:02:59;16.80;62.40
61374;DHT22;47242;48.158;-1.586;2024-03-22T13:05:25;16.80;62.00
61374;DHT22;47242;48.158;-1.586;2024-03-22T13:07:52;17.00;61.90
61374;DHT22;47242;48.158;-1.586;2024-03-22T13:10:18;17.00;60.70
61374;DHT22;47242;48.158;-1.586;2024-03-22T13:12:43;17.10;60.90
61374;DHT22;47242;48.158;-1.586;2024-03-22T13:15:09;17.20;58.80
61374;DHT22;47242;48.158;-1.586;2024-03-22T13:17:35;17.10;58.60
61374;DHT22;47242;48.158;-1.586;2024-03-22T13:20:00;17.10;59.70
61374;DHT22;47242;48.158;-1.586;2024-03-22T13:22:26;17.20;61.50
61374;DHT22;47242;48.158;-1.586;2024-03-22T13:24:52;17.30;62.00
61374;DHT22;47242;48.158;-1.586;2024-03-22T13:27:18;17.30;61.70
61374;DHT22;47242;48.158;-1.586;2024-03-22T13:29:45;17.30;59.80
61374;DHT22;47242;48.158;-1.586;2024-03-22T13:32:11;17.30;60.70
61374;DHT22;47242;48.158;-1.586;2024-03-22T13:34:38;17.30;60.30
61374;DHT22;47242;48.158;-1.586;2024-03-22T13:37:04;17.30;61.10
61374;DHT22;47242;48.158;-1.586;2024-03-22T13:39:31;17.30;59.50
61374;DHT22;47242;48.158;-1.586;2024-03-22T13:41:57;17.30;58.60
61374;DHT22;47242;48.158;-1.586;2024-03-22T13:44:24;17.30;59.00
61374;DHT22;47242;48.158;-1.586;2024-03-22T13:46:50;17.30;59.70
61374;DHT22;47242;48.158;-1.586;2024-03-22T13:49:18;17.30;59.30
61374;DHT22;47242;48.158;-1.586;2024-03-22T13:51:44;17.30;59.40
61374;DHT22;47242;48.158;-1.586;2024-03-22T13:54:12;17.50;60.60
61374;DHT22;47242;48.158;-1.586;2024-03-22T13:56:38;17.60;60.10
61374;DHT22;47242;48.158;-1.586;2024-03-22T13:59:04;17.60;59.30
61374;DHT22;47242;48.158;-1.586;2024-03-22T14:01:36;17.60;59.70
61374;DHT22;47242;48.158;-1.586;2024-03-22T14:04:04;17.70;59.20
61374;DHT22;47242;48.158;-1.586;2024-03-22T14:06:31;17.60;58.60
61374;DHT22;47242;48.158;-1.586;2024-03-22T14:08:58;17.60;59.50
61374;DHT22;47242;48.158;-1.586;2024-03-22T14:11:27;17.70;59.60
61374;DHT22;47242;48.158;-1.586;2024-03-22T14:13:53;17.70;59.80
61374;DHT22;47242;48.158;-1.586;2024-03-22T14:16:19;17.70;59.40
61374;DHT22;47242;48.158;-1.586;2024-03-22T14:18:45;17.70;59.30
61374;DHT22;47242;48.158;-1.586;2024-03-22T14:21:10;17.70;59.70
61374;DHT22;47242;48.158;-1.586;2024-03-22T14:23:39;17.80;60.30
61374;DHT22;47242;48.158;-1.586;2024-03-22T14:26:05;18.00;61.70
61374;DHT22;47242;48.158;-1.586;2024-03-22T14:28:31;18.30;61.30
61374;DHT22;47242;48.158;-1.586;2024-03-22T14:30:57;18.40;59.90
61374;DHT22;47242;48.158;-1.586;2024-03-22T14:33:23;18.50;59.00
61374;DHT22;47242;48.158;-1.586;2024-03-22T14:35:48;18.40;60.30
61374;DHT22;47242;48.158;-1.586;2024-03-22T14:38:14;18.50;59.70
61374;DHT22;47242;48.158;-1.586;2024-03-22T14:40:40;18.30;59.60
61374;DHT22;47242;48.158;-1.586;2024-03-22T14:43:06;18.30;59.40
61374;DHT22;47242;48.158;-1.586;2024-03-22T14:45:32;18.30;58.70
61374;DHT22;47242;48.158;-1.586;2024-03-22T14:47:57;18.50;58.90
61374;DHT22;47242;48.158;-1.586;2024-03-22T14:50:23;18.60;59.20
61374;DHT22;47242;48.158;-1.586;2024-03-22T14:52:49;18.80;59.90
61374;DHT22;47242;48.158;-1.586;2024-03-22T14:55:15;18.80;59.10
61374;DHT22;47242;48.158;-1.586;2024-03-22T14:57:41;18.80;57.80
61374;DHT22;47242;48.158;-1.586;2024-03-22T15:00:07;18.80;59.20
61374;DHT22;47242;48.158;-1.586;2024-03-22T15:02:36;18.80;59.30
61374;DHT22;47242;48.158;-1.586;2024-03-22T15:05:02;18.60;58.10
61374;DHT22;47242;48.158;-1.586;2024-03-22T15:07:30;18.60;58.60
61374;DHT22;47242;48.158;-1.586;2024-03-22T15:09:56;18.50;58.10
61374;DHT22;47242;48.158;-1.586;2024-03-22T15:12:22;18.30;58.60
61374;DHT22;47242;48.158;-1.586;2024-03-22T15:14:47;18.30;58.40
61374;DHT22;47242;48.158;-1.586;2024-03-22T15:17:19;18.20;59.90
61374;DHT22;47242;48.158;-1.586;2024-03-22T15:19:48;18.20;60.10
61374;DHT22;47242;48.158;-1.586;2024-03-22T15:22:14;18.10;60.00
61374;DHT22;47242;48.158;-1.586;2024-03-22T15:24:45;17.90;60.40
61374;DHT22;47242;48.158;-1.586;2024-03-22T15:27:12;17.80;60.70
61374;DHT22;47242;48.158;-1.586;2024-03-22T15:29:40;17.60;61.10
61374;DHT22;47242;48.158;-1.586;2024-03-22T15:32:06;17.40;62.00
61374;DHT22;47242;48.158;-1.586;2024-03-22T15:34:33;17.30;62.10
61374;DHT22;47242;48.158;-1.586;2024-03-22T15:47:59;16.50;63.60
61374;DHT22;47242;48.158;-1.586;2024-03-22T15:50:25;16.40;64.10
61374;DHT22;47242;48.158;-1.586;2024-03-22T15:52:53;16.40;64.40
61374;DHT22;47242;48.158;-1.586;2024-03-22T15:55:18;16.30;64.60
61374;DHT22;47242;48.158;-1.586;2024-03-22T15:57:44;16.20;65.00
61374;DHT22;47242;48.158;-1.586;2024-03-22T16:00:10;16.20;65.60
61374;DHT22;47242;48.158;-1.586;2024-03-22T16:02:38;16.10;65.60
61374;DHT22;47242;48.158;-1.586;2024-03-22T16:05:04;16.10;65.50
61374;DHT22;47242;48.158;-1.586;2024-03-22T16:07:30;16.10;65.50
61374;DHT22;47242;48.158;-1.586;2024-03-22T16:09:56;16.00;65.00
61374;DHT22;47242;48.158;-1.586;2024-03-22T16:12:21;15.90;64.90
61374;DHT22;47242;48.158;-1.586;2024-03-22T16:14:47;15.90;65.30
61374;DHT22;47242;48.158;-1.586;2024-03-22T16:17:13;15.80;65.50
61374;DHT22;47242;48.158;-1.586;2024-03-22T16:19:38;15.80;65.90
61374;DHT22;47242;48.158;-1.586;2024-03-22T16:22:04;15.80;66.40
61374;DHT22;47242;48.158;-1.586;2024-03-22T16:24:30;15.70;67.20
61374;DHT22;47242;48.158;-1.586;2024-03-22T16:26:55;15.60;68.30
61374;DHT22;47242;48.158;-1.586;2024-03-22T16:29:21;15.50;69.70
61374;DHT22;47242;48.158;-1.586;2024-03-22T16:31:52;15.40;71.30
61374;DHT22;47242;48.158;-1.586;2024-03-22T16:34:19;15.20;73.60
61374;DHT22;47242;48.158;-1.586;2024-03-22T16:36:45;15.30;74.50
61374;DHT22;47242;48.158;-1.586;2024-03-22T16:39:10;15.00;76.10
61374;DHT22;47242;48.158;-1.586;2024-03-22T16:41:36;14.80;77.40
61374;DHT22;47242;48.158;-1.586;2024-03-22T16:44:02;14.30;76.70
61374;DHT22;47242;48.158;-1.586;2024-03-22T16:46:27;14.10;77.00
61374;DHT22;47242;48.158;-1.586;2024-03-22T16:48:53;13.80;77.50
61374;DHT22;47242;48.158;-1.586;2024-03-22T16:51:19;13.50;78.20
61374;DHT22;47242;48.158;-1.586;2024-03-22T16:53:45;13.40;78.50
61374;DHT22;47242;48.158;-1.586;2024-03-22T16:56:10;13.20;78.90
61374;DHT22;47242;48.158;-1.586;2024-03-22T16:58:36;13.20;79.50
61374;DHT22;47242;48.158;-1.586;2024-03-22T17:01:03;13.20;79.30
61374;DHT22;47242;48.158;-1.586;2024-03-22T17:03:29;13.30;79.10
61374;DHT22;47242;48.158;-1.586;2024-03-22T17:05:54;13.20;79.00
61374;DHT22;47242;48.158;-1.586;2024-03-22T17:08:23;13.10;79.30
61374;DHT22;47242;48.158;-1.586;2024-03-22T17:10:49;12.80;79.20
61374;DHT22;47242;48.158;-1.586;2024-03-22T17:13:17;12.60;78.30
61374;DHT22;47242;48.158;-1.586;2024-03-22T17:15:46;12.40;78.00
61374;DHT22;47242;48.158;-1.586;2024-03-22T17:18:12;12.30;77.70
61374;DHT22;47242;48.158;-1.586;2024-03-22T17:20:37;12.30;78.10
61374;DHT22;47242;48.158;-1.586;2024-03-22T17:23:04;12.20;77.70
61374;DHT22;47242;48.158;-1.586;2024-03-22T17:25:30;12.00;78.40
61374;DHT22;47242;48.158;-1.586;2024-03-22T17:27:58;12.00;78.30
61374;DHT22;47242;48.158;-1.586;2024-03-22T17:30:24;11.80;78.20
61374;DHT22;47242;48.158;-1.586;2024-03-22T17:32:50;11.90;78.60
61374;DHT22;47242;48.158;-1.586;2024-03-22T17:35:16;11.90;77.90
61374;DHT22;47242;48.158;-1.586;2024-03-22T17:37:41;11.90;78.20
61374;DHT22;47242;48.158;-1.586;2024-03-22T17:40:08;11.80;77.90
61374;DHT22;47242;48.158;-1.586;2024-03-22T17:42:35;11.70;78.20
61374;DHT22;47242;48.158;-1.586;2024-03-22T17:45:00;11.70;78.20
61374;DHT22;47242;48.158;-1.586;2024-03-22T17:47:29;11.70;78.20
61374;DHT22;47242;48.158;-1.586;2024-03-22T17:49:55;11.60;78.50
61374;DHT22;47242;48.158;-1.586;2024-03-22T17:52:21;11.70;78.60
61374;DHT22;47242;48.158;-1.586;2024-03-22T17:54:52;11.70;78.90
61374;DHT22;47242;48.158;-1.586;2024-03-22T17:57:18;11.70;79.00
61374;DHT22;47242;48.158;-1.586;2024-03-22T17:59:44;11.70;79.20
61374;DHT22;47242;48.158;-1.586;2024-03-22T18:02:48;11.80;79.30
61374;DHT22;47242;48.158;-1.586;2024-03-22T18:08:40;11.50;80.00
61374;DHT22;47242;48.158;-1.586;2024-03-22T18:14:24;11.70;79.90
61374;DHT22;47242;48.158;-1.586;2024-03-22T18:16:53;11.60;80.30
61374;DHT22;47242;48.158;-1.586;2024-03-22T18:19:18;11.50;80.30
61374;DHT22;47242;48.158;-1.586;2024-03-22T18:21:45;11.50;80.20
61374;DHT22;47242;48.158;-1.586;2024-03-22T18:24:38;11.60;80.50
61374;DHT22;47242;48.158;-1.586;2024-03-22T18:27:07;11.50;80.70
61374;DHT22;47242;48.158;-1.586;2024-03-22T18:29:42;11.50;80.90
61374;DHT22;47242;48.158;-1.586;2024-03-22T18:32:08;11.50;80.60
61374;DHT22;47242;48.158;-1.586;2024-03-22T18:34:33;11.50;80.60
61374;DHT22;47242;48.158;-1.586;2024-03-22T18:36:59;11.50;81.00
61374;DHT22;47242;48.158;-1.586;2024-03-22T18:39:25;11.40;80.90
61374;DHT22;47242;48.158;-1.586;2024-03-22T18:41:50;11.30;81.30
61374;DHT22;47242;48.158;-1.586;2024-03-22T18:44:16;11.30;81.50
61374;DHT22;47242;48.158;-1.586;2024-03-22T18:46:41;11.30;81.50
61374;DHT22;47242;48.158;-1.586;2024-03-22T18:49:08;11.20;81.80
61374;DHT22;47242;48.158;-1.586;2024-03-22T18:51:34;11.20;81.40
61374;DHT22;47242;48.158;-1.586;2024-03-22T18:54:00;11.30;81.90
61374;DHT22;47242;48.158;-1.586;2024-03-22T18:56:25;11.20;80.90
61374;DHT22;47242;48.158;-1.586;2024-03-22T18:58:54;11.10;80.90
61374;DHT22;47242;48.158;-1.586;2024-03-22T19:01:20;11.10;80.60
61374;DHT22;47242;48.158;-1.586;2024-03-22T19:03:49;11.00;80.70
61374;DHT22;47242;48.158;-1.586;2024-03-22T19:06:15;10.90;81.10
61374;DHT22;47242;48.158;-1.586;2024-03-22T19:08:40;11.00;80.80
61374;DHT22;47242;48.158;-1.586;2024-03-22T19:11:06;10.80;81.00
61374;DHT22;47242;48.158;-1.586;2024-03-22T19:13:32;10.80;81.50
61374;DHT22;47242;48.158;-1.586;2024-03-22T19:15:59;10.80;81.50
61374;DHT22;47242;48.158;-1.586;2024-03-22T19:18:26;10.80;81.10
61374;DHT22;47242;48.158;-1.586;2024-03-22T19:20:51;10.90;81.40
61374;DHT22;47242;48.158;-1.586;2024-03-22T19:26:21;11.00;80.30
61374;DHT22;47242;48.158;-1.586;2024-03-22T19:28:47;10.90;80.20
61374;DHT22;47242;48.158;-1.586;2024-03-22T19:31:13;11.00;79.90
61374;DHT22;47242;48.158;-1.586;2024-03-22T19:33:38;11.00;80.00
61374;DHT22;47242;48.158;-1.586;2024-03-22T19:36:07;10.90;80.00
61374;DHT22;47242;48.158;-1.586;2024-03-22T19:38:35;11.00;79.90
61374;DHT22;47242;48.158;-1.586;2024-03-22T19:41:04;10.90;79.80
61374;DHT22;47242;48.158;-1.586;2024-03-22T19:43:32;10.90;79.80
61374;DHT22;47242;48.158;-1.586;2024-03-22T19:46:05;10.90;79.80
61374;DHT22;47242;48.158;-1.586;2024-03-22T19:48:34;10.90;79.40
61374;DHT22;47242;48.158;-1.586;2024-03-22T19:51:02;10.90;79.70
61374;DHT22;47242;48.158;-1.586;2024-03-22T19:53:32;10.80;79.90
61374;DHT22;47242;48.158;-1.586;2024-03-22T19:55:58;10.80;79.90
61374;DHT22;47242;48.158;-1.586;2024-03-22T19:58:24;10.80;79.60
61374;DHT22;47242;48.158;-1.586;2024-03-22T20:00:57;10.80;79.60
61374;DHT22;47242;48.158;-1.586;2024-03-22T20:03:23;10.70;79.80
61374;DHT22;47242;48.158;-1.586;2024-03-22T20:05:48;10.70;79.90
61374;DHT22;47242;48.158;-1.586;2024-03-22T20:08:14;10.60;80.10
61374;DHT22;47242;48.158;-1.586;2024-03-22T20:10:43;10.60;80.20
61374;DHT22;47242;48.158;-1.586;2024-03-22T20:13:08;10.60;80.30
61374;DHT22;47242;48.158;-1.586;2024-03-22T20:15:34;10.70;80.30
61374;DHT22;47242;48.158;-1.586;2024-03-22T20:18:07;10.70;80.30
61374;DHT22;47242;48.158;-1.586;2024-03-22T20:20:33;10.50;80.10
61374;DHT22;47242;48.158;-1.586;2024-03-22T20:22:59;10.50;80.60
61374;DHT22;47242;48.158;-1.586;2024-03-22T20:25:35;10.50;80.90
61374;DHT22;47242;48.158;-1.586;2024-03-22T20:28:02;10.40;80.90
61374;DHT22;47242;48.158;-1.586;2024-03-22T20:30:35;10.40;80.80
61374;DHT22;47242;48.158;-1.586;2024-03-22T20:33:01;10.50;80.90
61374;DHT22;47242;48.158;-1.586;2024-03-22T20:35:27;10.50;80.70
